Time;durP1;ratioP1;P1;durP2;ratioP2;P2;SDS_P1;SDS_P2;PMS_P1;PMS_P2;Temp;Humidity;BMP_temperature;BMP_pressure;BME280_temperature;BME280_humidity;BME280_pressure;Samples;Min_cycle;Max_cycle;Signal;HPM_P1;HPM_P2
2023/04/06 00:02:20;;;;;;;;;;;;;;;8.82;63.00;100301.73;110328;1271;22454;-54
2023/04/06 00:04:49;;;;;;;;;;;;;;;8.82;63.08;100304.15;109721;1268;1006830;-54
2023/04/06 00:07:17;;;;;;;;;;;;;;;8.81;62.97;100298.62;110315;1276;22448;-54
2023/04/06 00:09:46;;;;;;;;;;;;;;;8.82;62.85;100299.66;110476;1268;22432;-54
2023/04/06 00:12:17;;;;;;;;;;;;;;;8.81;62.89;100301.73;110147;1273;22494;-54
2023/04/06 00:14:46;;;;;;;;;;;;;;;8.81;62.87;100299.31;109714;1276;1002791;-54
2023/04/06 00:17:14;;;;;;;;;;;;;;;8.76;63.11;100302.70;110478;1276;22397;-54
2023/04/06 00:19:46;;;;;;;;;;;;;;;8.79;63.08;100301.95;110471;1268;22414;-54
2023/04/06 00:22:15;;;;;;;;;;;;;;;8.81;62.95;100299.84;110483;1268;22450;-54
2023/04/06 00:24:43;;;;;;;;;;;;;;;8.81;62.74;100299.48;109678;1276;1003132;-54
2023/04/06 00:27:11;;;;;;;;;;;;;;;8.80;62.80;100298.45;110413;1268;22450;-54
2023/04/06 00:29:40;;;;;;;;;;;;;;;8.80;62.81;100300.02;110458;1268;23193;-53
2023/04/06 00:32:08;;;;;;;;;;;;;;;8.79;62.96;100295.20;110475;1273;22531;-54
2023/04/06 00:34:36;;;;;;;;;;;;;;;8.62;63.48;100295.23;110462;1268;22429;-55
2023/04/06 00:37:05;;;;;;;;;;;;;;;8.65;63.61;100295.68;110174;1273;22442;-54
2023/04/06 00:39:34;;;;;;;;;;;;;;;8.70;63.39;100293.66;110506;1268;22460;-54
2023/04/06 00:42:06;;;;;;;;;;;;;;;8.71;63.20;100294.70;110205;1276;22443;-54
2023/04/06 00:44:35;;;;;;;;;;;;;;;8.69;63.20;100297.34;110100;1273;22463;-54
2023/04/06 00:47:04;;;;;;;;;;;;;;;8.67;63.23;100299.27;110199;1277;22436;-54
2023/04/06 00:49:34;;;;;;;;;;;;;;;8.65;63.36;100303.28;110422;1269;22418;-53
2023/04/06 00:52:03;;;;;;;;;;;;;;;8.67;63.46;100301.36;110441;1268;22442;-54
2023/04/06 00:54:36;;;;;;;;;;;;;;;8.77;63.04;100300.60;110135;1269;22436;-54
2023/04/06 00:57:04;;;;;;;;;;;;;;;8.76;63.04;100298.05;110380;1269;22444;-54
2023/04/06 00:59:32;;;;;;;;;;;;;;;8.75;63.03;100297.02;109748;1268;1002381;-54
2023/04/06 01:02:02;;;;;;;;;;;;;;;8.76;62.96;100296.32;110412;1276;23165;-54
2023/04/06 01:04:36;;;;;;;;;;;;;;;8.76;62.92;100302.02;110384;1276;22415;-53
2023/04/06 01:07:06;;;;;;;;;;;;;;;8.75;62.99;100304.12;110398;1276;22441;-54
2023/04/06 01:09:41;;;;;;;;;;;;;;;8.76;62.89;100301.32;110411;1276;22427;-54
2023/04/06 01:12:15;;;;;;;;;;;;;;;8.78;62.93;100298.17;110413;1269;23251;-54
2023/04/06 01:14:43;;;;;;;;;;;;;;;8.77;62.80;100301.46;109699;1268;1002201;-54
2023/04/06 01:17:12;;;;;;;;;;;;;;;8.75;62.72;100298.58;109653;1269;1002402;-54
2023/04/06 01:19:40;;;;;;;;;;;;;;;8.72;62.77;100302.80;110396;1269;22429;-54
2023/04/06 01:22:13;;;;;;;;;;;;;;;8.70;62.66;100306.47;109641;1276;1002212;-54
2023/04/06 01:24:45;;;;;;;;;;;;;;;8.68;62.66;100304.45;110420;1268;22461;-54
2023/04/06 01:27:34;;;;;;;;;;;;;;;8.66;62.55;100308.64;110218;1272;23091;-54
2023/04/06 01:30:20;;;;;;;;;;;;;;;8.62;62.34;100306.48;110477;1268;23159;-54
2023/04/06 01:33:00;;;;;;;;;;;;;;;8.57;62.38;100307.44;109623;1269;1002365;-54
2023/04/06 01:35:51;;;;;;;;;;;;;;;8.52;62.21;100304.61;110483;1268;22453;-54
2023/04/06 01:38:23;;;;;;;;;;;;;;;8.47;62.24;100304.88;109692;1273;1002242;-54
2023/04/06 01:40:51;;;;;;;;;;;;;;;8.44;62.28;100308.93;110421;1271;23131;-54
2023/04/06 01:43:22;;;;;;;;;;;;;;;8.41;62.28;100305.88;110456;1276;22448;-54
2023/04/06 01:46:02;;;;;;;;;;;;;;;8.37;62.23;100307.86;110423;1268;23349;-54
2023/04/06 01:48:34;;;;;;;;;;;;;;;8.33;62.28;100310.16;110391;1269;22423;-54
2023/04/06 01:51:08;;;;;;;;;;;;;;;8.31;62.33;100308.48;110397;1271;22505;-54
2023/04/06 01:53:43;;;;;;;;;;;;;;;8.28;62.31;100307.17;110318;1273;22425;-53
2023/04/06 01:56:11;;;;;;;;;;;;;;;8.25;62.22;100305.30;110129;1269;23154;-54
2023/04/06 01:58:45;;;;;;;;;;;;;;;8.22;62.21;100305.52;110487;1269;22450;-53
2023/04/06 02:01:15;;;;;;;;;;;;;;;8.20;62.32;100309.36;110368;1276;22397;-54
2023/04/06 02:03:51;;;;;;;;;;;;;;;8.17;62.32;100312.19;110163;1274;23141;-54
2023/04/06 02:06:19;;;;;;;;;;;;;;;8.14;62.23;100307.23;110376;1276;23255;-54
2023/04/06 02:08:48;;;;;;;;;;;;;;;8.11;62.23;100306.75;110387;1270;22497;-54
2023/04/06 02:11:17;;;;;;;;;;;;;;;8.08;62.21;100311.48;110404;1271;22432;-53
2023/04/06 02:13:48;;;;;;;;;;;;;;;8.06;62.34;100314.10;110105;1276;22437;-53
2023/04/06 02:16:20;;;;;;;;;;;;;;;8.03;62.33;100314.69;110066;1274;23246;-53
2023/04/06 02:18:49;;;;;;;;;;;;;;;8.01;62.40;100322.15;110484;1269;22514;-54
2023/04/06 02:21:19;;;;;;;;;;;;;;;8.00;62.46;100317.84;110489;1276;22418;-54
2023/04/06 02:23:49;;;;;;;;;;;;;;;7.99;62.46;100321.68;110521;1268;22436;-54
2023/04/06 02:26:18;;;;;;;;;;;;;;;7.99;62.51;100322.55;110501;1268;22428;-53
2023/04/06 02:28:50;;;;;;;;;;;;;;;7.99;62.20;100325.30;110436;1273;22435;-54
2023/04/06 02:31:19;;;;;;;;;;;;;;;7.96;62.59;100327.08;110489;1268;23111;-54
2023/04/06 02:33:47;;;;;;;;;;;;;;;7.96;62.58;100332.44;110206;1276;249741;-53
2023/04/06 02:36:16;;;;;;;;;;;;;;;7.95;62.48;100330.91;110380;1271;22412;-53
2023/04/06 02:38:46;;;;;;;;;;;;;;;7.94;62.52;100338.86;110402;1269;22451;-54
2023/04/06 02:41:15;;;;;;;;;;;;;;;7.93;62.41;100339.55;110276;1269;22468;-54
2023/04/06 02:43:43;;;;;;;;;;;;;;;7.93;62.29;100341.83;110492;1276;22574;-54
2023/04/06 02:46:28;;;;;;;;;;;;;;;7.91;62.33;100345.81;110408;1270;22417;-54
2023/04/06 02:49:00;;;;;;;;;;;;;;;7.85;62.48;100347.31;110512;1268;22472;-53
2023/04/06 02:51:29;;;;;;;;;;;;;;;7.82;62.64;100352.38;110122;1275;22453;-53
2023/04/06 02:54:05;;;;;;;;;;;;;;;7.84;62.51;100367.01;110137;1276;22639;-53
2023/04/06 02:56:34;;;;;;;;;;;;;;;7.85;62.32;100372.67;110411;1276;23195;-54
2023/04/06 02:59:02;;;;;;;;;;;;;;;7.84;62.36;100372.70;110370;1273;22433;-54
2023/04/06 03:01:32;;;;;;;;;;;;;;;7.83;62.41;100371.52;110367;1269;22400;-54
2023/04/06 03:04:03;;;;;;;;;;;;;;;7.88;62.36;100377.13;110404;1276;22443;-54
2023/04/06 03:06:32;;;;;;;;;;;;;;;7.88;62.31;100380.25;110409;1276;22408;-54
2023/04/06 03:09:07;;;;;;;;;;;;;;;7.85;62.35;100381.51;110383;1277;23144;-53
2023/04/06 03:11:37;;;;;;;;;;;;;;;7.88;62.28;100382.49;110110;1273;23135;-53
2023/04/06 03:14:05;;;;;;;;;;;;;;;7.87;62.07;100389.06;109463;1278;1002740;-53
2023/04/06 03:16:36;;;;;;;;;;;;;;;7.83;61.97;100388.80;110157;1278;22451;-53
2023/04/06 03:19:05;;;;;;;;;;;;;;;7.76;62.10;100395.11;110108;1274;22469;-53
2023/04/06 03:21:35;;;;;;;;;;;;;;;7.63;62.55;100397.73;110261;1278;23181;-53
2023/04/06 03:24:04;;;;;;;;;;;;;;;7.59;62.82;100408.50;110130;1273;22544;-53
2023/04/06 03:26:32;;;;;;;;;;;;;;;7.56;62.77;100408.05;110244;1271;22551;-53
2023/04/06 03:29:04;;;;;;;;;;;;;;;7.64;62.65;100408.45;110211;1271;22666;-53
2023/04/06 03:31:34;;;;;;;;;;;;;;;7.67;62.44;100414.44;109486;1272;1002364;-53
2023/04/06 03:34:08;;;;;;;;;;;;;;;7.67;62.39;100421.85;109441;1270;1002428;-53
2023/04/06 03:36:37;;;;;;;;;;;;;;;7.65;62.33;100425.84;110171;1274;22388;-52
2023/04/06 03:39:05;;;;;;;;;;;;;;;7.66;62.48;100424.47;110235;1271;22460;-53
2023/04/06 03:41:35;;;;;;;;;;;;;;;7.67;62.46;100432.22;110287;1271;22434;-53
2023/04/06 03:44:15;;;;;;;;;;;;;;;7.68;62.51;100435.13;110024;1279;22460;-53
2023/04/06 03:46:45;;;;;;;;;;;;;;;7.71;62.48;100441.48;110034;1273;22446;-53
2023/04/06 03:49:13;;;;;;;;;;;;;;;7.72;62.40;100442.84;110063;1279;22443;-54
2023/04/06 03:51:43;;;;;;;;;;;;;;;7.72;62.29;100453.55;109369;1279;1002913;-52
2023/04/06 03:54:11;;;;;;;;;;;;;;;7.70;62.20;100452.88;109992;1277;22443;-53
2023/04/06 03:56:39;;;;;;;;;;;;;;;7.67;62.24;100458.45;110130;1274;22414;-53
2023/04/06 03:59:09;;;;;;;;;;;;;;;7.67;62.31;100463.46;110053;1273;22446;-52
2023/04/06 04:01:40;;;;;;;;;;;;;;;7.66;62.18;100467.11;110088;1275;23218;-52
2023/04/06 04:04:08;;;;;;;;;;;;;;;7.64;62.25;100466.61;110186;1271;22446;-52
2023/04/06 04:06:36;;;;;;;;;;;;;;;7.64;62.07;100468.68;110040;1275;22479;-52
2023/04/06 04:09:07;;;;;;;;;;;;;;;7.65;62.17;100475.90;110030;1272;23507;-52
2023/04/06 04:11:36;;;;;;;;;;;;;;;7.65;62.07;100480.23;110186;1279;23054;-52
2023/04/06 04:14:05;;;;;;;;;;;;;;;7.65;62.07;100481.44;110052;1273;22421;-52
2023/04/06 04:16:35;;;;;;;;;;;;;;;7.65;62.06;100484.88;110373;1276;22538;-51
2023/04/06 04:19:05;;;;;;;;;;;;;;;7.66;62.17;100488.68;110553;1269;22400;-54
2023/04/06 04:21:34;;;;;;;;;;;;;;;7.67;62.04;100488.32;110594;1268;22428;-51
2023/04/06 04:24:07;;;;;;;;;;;;;;;7.70;62.05;100492.94;110105;1276;22644;-51
2023/04/06 04:26:36;;;;;;;;;;;;;;;7.71;62.10;100493.09;110507;1276;22417;-51
2023/04/06 04:29:05;;;;;;;;;;;;;;;7.74;61.88;100498.74;109484;1271;1002312;-51
2023/04/06 04:31:36;;;;;;;;;;;;;;;7.76;61.77;100498.02;110488;1269;22443;-51
2023/04/06 04:34:07;;;;;;;;;;;;;;;7.77;61.80;100498.54;110388;1273;22495;-51
2023/04/06 04:36:41;;;;;;;;;;;;;;;7.77;61.73;100497.83;110415;1274;22452;-51
2023/04/06 04:39:11;;;;;;;;;;;;;;;7.77;61.59;100502.33;110387;1275;22416;-51
2023/04/06 04:41:42;;;;;;;;;;;;;;;7.76;61.60;100506.83;110545;1276;22463;-51
2023/04/06 04:44:12;;;;;;;;;;;;;;;7.75;61.64;100508.23;110391;1272;22432;-52
2023/04/06 04:46:42;;;;;;;;;;;;;;;7.76;61.85;100515.98;110566;1275;23091;-51
2023/04/06 04:49:11;;;;;;;;;;;;;;;7.77;61.83;100514.75;110420;1276;23179;-51
2023/04/06 04:51:41;;;;;;;;;;;;;;;7.81;61.87;100524.02;110406;1276;23111;-51
2023/04/06 04:54:13;;;;;;;;;;;;;;;7.86;61.77;100524.80;109363;1276;1002817;-51
2023/04/06 04:56:41;;;;;;;;;;;;;;;7.89;61.82;100527.36;110157;1279;22534;-51
2023/04/06 04:59:19;;;;;;;;;;;;;;;7.94;61.66;100533.86;110083;1275;23166;-51
2023/04/06 05:01:53;;;;;;;;;;;;;;;7.97;61.70;100537.27;109909;1279;23243;-50
2023/04/06 05:04:27;;;;;;;;;;;;;;;8.00;61.48;100542.92;110051;1274;22404;-51
2023/04/06 05:07:05;;;;;;;;;;;;;;;8.01;61.35;100543.27;109940;1280;22994;-50
2023/04/06 05:09:34;;;;;;;;;;;;;;;8.01;61.30;100548.79;109997;1280;22422;-52
2023/04/06 05:12:04;;;;;;;;;;;;;;;8.02;61.21;100552.74;109249;1280;1002409;-50
2023/04/06 05:14:36;;;;;;;;;;;;;;;8.03;61.21;100558.60;109239;1280;1002515;-50
2023/04/06 05:17:08;;;;;;;;;;;;;;;8.04;61.17;100566.52;109982;1277;23108;-51
2023/04/06 05:19:37;;;;;;;;;;;;;;;8.01;60.78;100572.09;110041;1274;23240;-51
2023/04/06 05:22:05;;;;;;;;;;;;;;;8.00;60.95;100577.13;110023;1279;23203;-50
2023/04/06 05:24:39;;;;;;;;;;;;;;;8.00;60.91;100579.38;110003;1279;23354;-51
2023/04/06 05:27:08;;;;;;;;;;;;;;;8.00;61.23;100580.41;109291;1276;1002097;-51
2023/04/06 05:29:36;;;;;;;;;;;;;;;8.02;61.54;100579.52;110553;1276;22429;-51
2023/04/06 05:32:06;;;;;;;;;;;;;;;8.08;61.44;100589.79;110420;1269;22463;-51
2023/04/06 05:34:35;;;;;;;;;;;;;;;8.12;61.28;100588.17;110227;1276;22439;-52
2023/04/06 05:37:04;;;;;;;;;;;;;;;8.13;60.98;100591.97;109632;1276;1002517;-51
2023/04/06 05:39:32;;;;;;;;;;;;;;;8.14;60.94;100591.08;109626;1276;1002489;-50
2023/04/06 05:42:03;;;;;;;;;;;;;;;8.14;60.97;100592.48;110559;1268;22486;-50
2023/04/06 05:44:39;;;;;;;;;;;;;;;8.16;60.64;100599.36;110407;1272;22409;-50
2023/04/06 05:47:11;;;;;;;;;;;;;;;8.17;60.48;100601.59;110350;1270;22418;-51
2023/04/06 05:49:43;;;;;;;;;;;;;;;8.19;60.61;100603.46;110384;1273;22438;-51
2023/04/06 05:52:16;;;;;;;;;;;;;;;8.20;60.54;100608.80;110508;1268;23196;-51
2023/04/06 05:54:48;;;;;;;;;;;;;;;8.22;60.76;100614.13;109641;1273;1002852;-50
2023/04/06 05:57:17;;;;;;;;;;;;;;;8.21;60.78;100619.83;110533;1273;22413;-51
2023/04/06 05:59:45;;;;;;;;;;;;;;;8.23;60.50;100629.31;110380;1270;22432;-51
2023/04/06 06:02:14;;;;;;;;;;;;;;;8.21;60.37;100634.19;109627;1276;1002292;-51
2023/04/06 06:04:44;;;;;;;;;;;;;;;8.22;60.25;100627.94;110472;1269;22407;-51
2023/04/06 06:07:13;;;;;;;;;;;;;;;8.21;60.27;100633.48;110389;1269;22427;-50
2023/04/06 06:09:46;;;;;;;;;;;;;;;8.22;60.28;100636.92;110437;1269;22434;-50
2023/04/06 06:12:22;;;;;;;;;;;;;;;8.22;60.29;100645.73;110426;1269;22452;-50
2023/04/06 06:14:50;;;;;;;;;;;;;;;8.20;60.05;100651.48;110247;1269;22496;-50
2023/04/06 06:17:18;;;;;;;;;;;;;;;8.16;60.08;100660.86;110503;1276;22417;-50
2023/04/06 06:19:47;;;;;;;;;;;;;;;8.14;60.19;100665.89;110595;1268;22839;-50
2023/04/06 06:22:16;;;;;;;;;;;;;;;8.14;60.35;100668.14;110356;1271;22418;-51
2023/04/06 06:24:46;;;;;;;;;;;;;;;8.15;60.35;100673.14;110501;1274;22496;-50
2023/04/06 06:27:15;;;;;;;;;;;;;;;8.16;60.41;100671.39;109368;1274;1002541;-51
2023/04/06 06:29:43;;;;;;;;;;;;;;;8.21;60.70;100682.05;110515;1273;22434;-51
2023/04/06 06:32:12;;;;;;;;;;;;;;;8.26;60.53;100681.67;110379;1271;23068;-51
2023/04/06 06:34:41;;;;;;;;;;;;;;;8.29;60.64;100689.75;110203;1276;22426;-51
2023/04/06 06:37:09;;;;;;;;;;;;;;;8.32;60.79;100693.69;110418;1274;23306;-51
2023/04/06 06:39:38;;;;;;;;;;;;;;;8.35;60.32;100696.41;110405;1271;22453;-51
2023/04/06 06:42:06;;;;;;;;;;;;;;;8.35;60.45;100701.77;109642;1269;1002343;-50
2023/04/06 06:45:00;;;;;;;;;;;;;;;8.37;60.56;100704.50;110367;1269;22541;-50
2023/04/06 06:47:30;;;;;;;;;;;;;;;8.38;60.27;100711.06;110231;1276;23258;-51
2023/04/06 06:49:58;;;;;;;;;;;;;;;8.38;60.33;100717.13;110540;1269;22436;-51
2023/04/06 06:52:28;;;;;;;;;;;;;;;8.37;60.28;100724.89;110518;1276;22389;-51
2023/04/06 06:54:57;;;;;;;;;;;;;;;8.40;60.28;100729.70;110523;1276;22382;-51
2023/04/06 06:57:25;;;;;;;;;;;;;;;8.39;60.29;100735.44;109440;1276;1003116;-50
2023/04/06 06:59:54;;;;;;;;;;;;;;;8.39;60.39;100743.58;110396;1274;22511;-50
2023/04/06 07:02:23;;;;;;;;;;;;;;;8.39;60.37;100748.05;110394;1269;23139;-50
2023/04/06 07:04:52;;;;;;;;;;;;;;;8.40;60.21;100753.39;110522;1273;23091;-50
2023/04/06 07:07:21;;;;;;;;;;;;;;;8.40;60.15;100757.36;110114;1269;22447;-51
2023/04/06 07:09:49;;;;;;;;;;;;;;;8.41;60.18;100752.52;110518;1268;22408;-51
2023/04/06 07:12:18;;;;;;;;;;;;;;;8.42;60.16;100754.56;110499;1276;22378;-50
2023/04/06 07:14:46;;;;;;;;;;;;;;;8.44;60.38;100755.41;110518;1273;22424;-49
2023/04/06 07:17:14;;;;;;;;;;;;;;;8.48;60.41;100762.45;110538;1276;23213;-50
2023/04/06 07:19:43;;;;;;;;;;;;;;;8.50;60.24;100771.56;110420;1270;22482;-50
2023/04/06 07:22:11;;;;;;;;;;;;;;;8.53;60.06;100780.36;109319;1276;1002083;-51
2023/04/06 07:24:40;;;;;;;;;;;;;;;8.54;59.95;100783.80;110522;1273;22424;-50
2023/04/06 07:27:08;;;;;;;;;;;;;;;8.53;59.87;100786.74;110206;1276;22482;-50
2023/04/06 07:29:38;;;;;;;;;;;;;;;8.55;59.91;100791.39;109638;1270;1002214;-50
2023/04/06 07:32:07;;;;;;;;;;;;;;;8.56;59.98;100795.70;110377;1269;22424;-50
2023/04/06 07:34:36;;;;;;;;;;;;;;;8.58;60.01;100800.70;110482;1276;23260;-51
2023/04/06 07:37:04;;;;;;;;;;;;;;;8.58;59.62;100807.43;110096;1276;22429;-50
2023/04/06 07:39:33;;;;;;;;;;;;;;;8.58;59.57;100810.38;110383;1273;23272;-51
2023/04/06 07:42:02;;;;;;;;;;;;;;;8.58;59.23;100812.10;110551;1276;23201;-50
2023/04/06 07:44:30;;;;;;;;;;;;;;;8.58;59.21;100817.63;110271;1276;22523;-51
2023/04/06 07:46:58;;;;;;;;;;;;;;;8.59;59.37;100811.92;110218;1276;22447;-50
2023/04/06 07:49:27;;;;;;;;;;;;;;;8.65;59.61;100818.42;110505;1276;22432;-51
2023/04/06 07:51:55;;;;;;;;;;;;;;;8.70;59.68;100826.46;110516;1276;22405;-51
2023/04/06 07:54:25;;;;;;;;;;;;;;;8.76;59.37;100831.23;110411;1270;22849;-51
2023/04/06 07:56:53;;;;;;;;;;;;;;;8.79;59.26;100838.97;110536;1273;22486;-51
2023/04/06 07:59:21;;;;;;;;;;;;;;;8.83;59.49;100841.17;110220;1272;22519;-50
2023/04/06 08:01:50;;;;;;;;;;;;;;;8.90;59.39;100844.38;109769;1276;1002392;-50
2023/04/06 08:04:19;;;;;;;;;;;;;;;8.94;59.11;100850.55;110508;1273;22399;-50
2023/04/06 08:06:48;;;;;;;;;;;;;;;8.95;58.80;100855.20;110531;1273;22410;-50
2023/04/06 08:09:18;;;;;;;;;;;;;;;8.97;58.93;100857.59;110195;1276;23160;-49
2023/04/06 08:11:48;;;;;;;;;;;;;;;9.02;58.82;100867.73;110531;1274;22422;-50
2023/04/06 08:14:16;;;;;;;;;;;;;;;9.08;58.64;100863.32;110519;1276;22431;-50
2023/04/06 08:16:45;;;;;;;;;;;;;;;9.15;58.68;100866.34;110538;1271;22419;-50
2023/04/06 08:19:16;;;;;;;;;;;;;;;9.23;58.67;100869.86;110543;1268;22753;-49
2023/04/06 08:21:45;;;;;;;;;;;;;;;9.32;58.33;100870.06;109841;1269;1002797;-50
2023/04/06 08:24:14;;;;;;;;;;;;;;;9.42;58.11;100877.71;110503;1268;23235;-49
2023/04/06 08:26:42;;;;;;;;;;;;;;;9.50;57.83;100880.86;110529;1276;22414;-50
2023/04/06 08:29:12;;;;;;;;;;;;;;;9.57;57.78;100884.21;110260;1269;22516;-50
2023/04/06 08:31:40;;;;;;;;;;;;;;;9.64;57.44;100887.06;110544;1276;23116;-50
2023/04/06 08:34:10;;;;;;;;;;;;;;;9.69;57.16;100884.38;110529;1269;22377;-50
2023/04/06 08:36:41;;;;;;;;;;;;;;;9.76;57.24;100892.23;110226;1276;22507;-50
2023/04/06 08:39:10;;;;;;;;;;;;;;;9.87;56.85;100899.17;109753;1270;1002536;-50
2023/04/06 08:41:41;;;;;;;;;;;;;;;9.94;56.57;100899.05;110519;1270;23254;-49
2023/04/06 08:44:09;;;;;;;;;;;;;;;9.97;56.20;100903.31;110218;1274;22454;-49
2023/04/06 08:46:38;;;;;;;;;;;;;;;9.98;55.88;100908.33;110495;1273;22406;-49
2023/04/06 08:49:08;;;;;;;;;;;;;;;9.98;55.65;100912.66;110246;1275;22429;-49
2023/04/06 08:51:37;;;;;;;;;;;;;;;9.96;55.54;100912.71;110488;1276;23268;-49
2023/04/06 08:54:06;;;;;;;;;;;;;;;9.93;55.75;100914.67;110472;1273;22396;-49
2023/04/06 08:56:37;;;;;;;;;;;;;;;9.89;55.92;100913.35;110465;1274;22499;-48
2023/04/06 08:59:05;;;;;;;;;;;;;;;9.89;56.16;100916.63;110152;1268;22431;-49
2023/04/06 09:01:36;;;;;;;;;;;;;;;9.92;56.24;100916.23;109585;1270;1002105;-50
2023/04/06 09:04:09;;;;;;;;;;;;;;;9.97;56.45;100918.05;109630;1276;1002757;-51
2023/04/06 09:06:37;;;;;;;;;;;;;;;10.03;56.38;100917.27;110236;1273;22431;-50
2023/04/06 09:09:06;;;;;;;;;;;;;;;10.10;56.14;100923.74;110138;1276;22397;-49
2023/04/06 09:11:50;;;;;;;;;;;;;;;10.17;55.76;100916.89;110523;1269;22412;-49
2023/04/06 09:14:35;;;;;;;;;;;;;;;10.22;55.83;100918.52;110550;1269;22428;-49
2023/04/06 09:17:04;;;;;;;;;;;;;;;10.29;55.78;100918.56;110563;1268;22442;-49
2023/04/06 09:19:32;;;;;;;;;;;;;;;10.33;55.66;100919.88;109750;1276;1002124;-49
2023/04/06 09:22:02;;;;;;;;;;;;;;;10.40;55.78;100920.11;110503;1273;23196;-49
2023/04/06 09:24:43;;;;;;;;;;;;;;;10.47;55.49;100923.44;110404;1272;22879;-48
2023/04/06 09:27:12;;;;;;;;;;;;;;;10.50;54.96;100927.19;110501;1276;22390;-49
2023/04/06 09:29:41;;;;;;;;;;;;;;;10.54;54.68;100923.50;109747;1268;1002241;-48
2023/04/06 09:32:11;;;;;;;;;;;;;;;10.59;54.92;100925.99;110290;1270;22451;-49
2023/04/06 09:34:39;;;;;;;;;;;;;;;10.66;55.03;100934.85;110489;1272;22476;-49
2023/04/06 09:37:17;;;;;;;;;;;;;;;10.73;54.19;100942.38;110479;1270;22418;-49
2023/04/06 09:39:46;;;;;;;;;;;;;;;10.78;53.89;100948.19;110505;1274;22425;-49
2023/04/06 09:42:26;;;;;;;;;;;;;;;10.77;53.59;100949.23;110133;1276;22483;-49
2023/04/06 09:44:54;;;;;;;;;;;;;;;10.75;53.39;100951.68;110458;1273;22427;-49
2023/04/06 09:47:23;;;;;;;;;;;;;;;10.74;53.34;100962.83;109744;1276;1002095;-49
2023/04/06 09:49:56;;;;;;;;;;;;;;;10.74;53.24;100965.08;110374;1273;23173;-49
2023/04/06 09:52:26;;;;;;;;;;;;;;;10.73;53.02;100968.56;110484;1276;22495;-50
2023/04/06 09:54:55;;;;;;;;;;;;;;;10.73;53.25;100971.16;110234;1274;22532;-49
2023/04/06 09:57:29;;;;;;;;;;;;;;;10.79;53.61;100974.54;109516;1276;1006230;-49
2023/04/06 10:00:11;;;;;;;;;;;;;;;10.84;53.35;100975.47;110426;1276;23180;-49
2023/04/06 10:03:07;;;;;;;;;;;;;;;10.89;52.88;100969.81;110454;1272;22476;-49
2023/04/06 10:05:41;;;;;;;;;;;;;;;10.92;52.69;100972.53;110371;1273;23071;-49
2023/04/06 10:08:10;;;;;;;;;;;;;;;10.94;52.64;100969.90;110502;1276;22404;-50
2023/04/06 10:10:38;;;;;;;;;;;;;;;10.98;52.79;100979.20;109401;1273;1003026;-49
2023/04/06 10:13:07;;;;;;;;;;;;;;;11.04;52.74;100992.44;110481;1269;22413;-49
2023/04/06 10:15:35;;;;;;;;;;;;;;;11.09;52.64;100999.95;110423;1270;22391;-49
2023/04/06 10:18:04;;;;;;;;;;;;;;;11.12;52.21;100991.39;110476;1270;22414;-49
2023/04/06 10:20:42;;;;;;;;;;;;;;;11.14;51.99;100997.42;110491;1268;22389;-49
2023/04/06 10:23:15;;;;;;;;;;;;;;;11.15;52.01;100993.06;109709;1268;1002446;-50
2023/04/06 10:25:54;;;;;;;;;;;;;;;11.15;51.94;100995.15;109714;1276;1002688;-49
2023/04/06 10:28:22;;;;;;;;;;;;;;;11.20;52.00;101002.02;110205;1273;22413;-49
2023/04/06 10:30:57;;;;;;;;;;;;;;;11.21;51.83;100999.36;110490;1276;22397;-49
2023/04/06 10:33:26;;;;;;;;;;;;;;;11.21;51.62;101006.30;110488;1276;22416;-49
2023/04/06 10:35:57;;;;;;;;;;;;;;;11.23;51.67;101005.41;110486;1269;22388;-49
2023/04/06 10:38:36;;;;;;;;;;;;;;;11.27;51.96;101014.35;109702;1276;1002737;-49
2023/04/06 10:41:09;;;;;;;;;;;;;;;11.32;51.87;101015.47;110374;1276;22497;-49
2023/04/06 10:43:38;;;;;;;;;;;;;;;11.39;51.77;101020.35;110464;1273;23134;-49
2023/04/06 10:46:07;;;;;;;;;;;;;;;11.46;52.10;101023.68;110494;1268;22436;-49
2023/04/06 10:48:36;;;;;;;;;;;;;;;11.54;51.96;101023.88;110474;1268;22404;-49
2023/04/06 10:51:07;;;;;;;;;;;;;;;11.64;51.75;101023.14;110479;1270;22408;-49
2023/04/06 10:53:37;;;;;;;;;;;;;;;11.73;51.76;101022.63;109722;1269;1002459;-49
2023/04/06 10:56:05;;;;;;;;;;;;;;;11.78;51.37;101024.41;110489;1273;22404;-49
2023/04/06 10:58:34;;;;;;;;;;;;;;;11.83;50.91;101029.85;110430;1273;22414;-49
2023/04/06 11:01:03;;;;;;;;;;;;;;;11.89;51.04;101028.50;110495;1268;22489;-48
2023/04/06 11:03:37;;;;;;;;;;;;;;;11.95;50.85;101033.23;109731;1269;1002718;-49
2023/04/06 11:06:05;;;;;;;;;;;;;;;11.97;50.69;101034.92;110474;1269;22412;-49
2023/04/06 11:08:37;;;;;;;;;;;;;;;11.98;50.37;101037.51;110470;1276;22440;-49
2023/04/06 11:11:15;;;;;;;;;;;;;;;11.98;50.29;101040.29;110480;1273;22406;-49
2023/04/06 11:13:53;;;;;;;;;;;;;;;11.97;50.57;101035.79;110493;1276;22413;-49
2023/04/06 11:16:22;;;;;;;;;;;;;;;11.99;50.56;101033.84;110467;1270;23083;-49
2023/04/06 11:18:57;;;;;;;;;;;;;;;12.01;50.71;101031.86;110496;1269;22406;-49
2023/04/06 11:21:36;;;;;;;;;;;;;;;12.05;50.79;101035.60;110473;1270;22423;-49
2023/04/06 11:24:05;;;;;;;;;;;;;;;12.08;50.48;101033.27;110188;1276;22427;-49
2023/04/06 11:26:53;;;;;;;;;;;;;;;12.11;50.31;101036.86;109688;1270;1003072;-49
2023/04/06 11:29:22;;;;;;;;;;;;;;;12.11;50.48;101047.10;110424;1276;23136;-49
2023/04/06 11:31:52;;;;;;;;;;;;;;;12.12;50.73;101047.44;110429;1276;23009;-49
2023/04/06 11:34:21;;;;;;;;;;;;;;;12.13;50.91;101048.99;110358;1270;23107;-49
2023/04/06 11:36:59;;;;;;;;;;;;;;;12.13;50.79;101059.06;110274;1269;23074;-49
2023/04/06 11:39:28;;;;;;;;;;;;;;;12.13;50.95;101061.16;110191;1276;22438;-49
2023/04/06 11:41:57;;;;;;;;;;;;;;;12.14;51.22;101069.98;110494;1270;22393;-49
2023/04/06 11:44:31;;;;;;;;;;;;;;;12.15;51.11;101067.71;110461;1268;22389;-49
2023/04/06 11:47:02;;;;;;;;;;;;;;;12.16;51.08;101070.45;110510;1268;22523;-49
2023/04/06 11:49:32;;;;;;;;;;;;;;;12.17;50.72;101075.32;110481;1276;22376;-50
2023/04/06 11:52:00;;;;;;;;;;;;;;;12.17;50.81;101076.02;110503;1272;23103;-49
2023/04/06 11:54:38;;;;;;;;;;;;;;;12.17;50.78;101081.75;109680;1270;1002296;-49
2023/04/06 11:57:07;;;;;;;;;;;;;;;12.18;50.82;101089.04;110248;1273;22436;-49
2023/04/06 11:59:35;;;;;;;;;;;;;;;12.20;50.80;101084.28;110438;1268;22420;-49
2023/04/06 12:02:04;;;;;;;;;;;;;;;12.25;50.74;101093.24;110524;1268;22419;-49
2023/04/06 12:04:32;;;;;;;;;;;;;;;12.26;50.81;101096.33;110455;1273;22422;-50
2023/04/06 12:07:01;;;;;;;;;;;;;;;12.28;50.81;101094.55;110479;1268;23086;-49
2023/04/06 12:09:29;;;;;;;;;;;;;;;12.27;51.02;101094.74;110429;1268;23144;-49
2023/04/06 12:11:58;;;;;;;;;;;;;;;12.36;50.85;101094.71;110456;1270;22650;-49
2023/04/06 12:14:26;;;;;;;;;;;;;;;12.38;51.11;101100.05;110485;1269;22406;-49
2023/04/06 12:16:54;;;;;;;;;;;;;;;12.41;51.19;101100.51;109709;1268;1002895;-49
2023/04/06 12:19:25;;;;;;;;;;;;;;;12.40;51.42;101103.48;110184;1276;23136;-49
2023/04/06 12:21:54;;;;;;;;;;;;;;;12.37;51.97;101106.17;109731;1269;1002583;-50
2023/04/06 12:24:23;;;;;;;;;;;;;;;12.34;51.97;101107.63;110139;1264;22445;-49
2023/04/06 12:26:52;;;;;;;;;;;;;;;12.32;51.76;101116.20;109667;1276;1002495;-49
2023/04/06 12:29:29;;;;;;;;;;;;;;;12.30;51.82;101117.29;110325;1269;22441;-49
2023/04/06 12:31:58;;;;;;;;;;;;;;;12.30;51.91;101119.90;110461;1268;22465;-50
2023/04/06 12:34:26;;;;;;;;;;;;;;;12.33;51.94;101120.36;110099;1277;22422;-49
2023/04/06 12:36:54;;;;;;;;;;;;;;;12.34;52.00;101116.50;110486;1268;22794;-49
2023/04/06 12:39:27;;;;;;;;;;;;;;;12.36;51.94;101117.14;110470;1268;22430;-49
2023/04/06 12:41:57;;;;;;;;;;;;;;;12.37;51.74;101119.38;110446;1276;22449;-49
2023/04/06 12:44:25;;;;;;;;;;;;;;;12.40;51.70;101123.51;110378;1270;23181;-49
2023/04/06 12:46:55;;;;;;;;;;;;;;;12.41;51.69;101120.49;110246;1268;22464;-49
2023/04/06 12:49:24;;;;;;;;;;;;;;;12.43;51.83;101119.41;110462;1276;22382;-49